createdAt,value
2017-12-31T00:00:42.940Z,7.99
2017-12-31T00:01:47.632Z,7.94
2017-12-31T00:02:52.163Z,7.85
2017-12-31T00:03:56.646Z,7.81
2017-12-31T00:05:01.221Z,7.75
2017-12-31T00:06:05.752Z,7.73
2017-12-31T00:07:10.227Z,7.68
2017-12-31T00:08:14.725Z,7.70
2017-12-31T00:09:19.448Z,7.71
2017-12-31T00:10:23.907Z,7.75
2017-12-31T00:11:28.647Z,7.80
2017-12-31T00:12:33.117Z,7.74
2017-12-31T00:13:37.563Z,7.68
2017-12-31T00:14:41.979Z,7.77
2017-12-31T00:15:47.495Z,7.78
2017-12-31T00:16:52.308Z,7.73
2017-12-31T00:17:56.748Z,7.78
2017-12-31T00:19:01.357Z,7.71
2017-12-31T00:20:06.115Z,7.67
2017-12-31T00:21:10.507Z,7.71
2017-12-31T00:22:15.031Z,7.68
2017-12-31T00:23:19.458Z,7.66
2017-12-31T00:24:23.804Z,7.79
2017-12-31T00:25:45.232Z,7.76
2017-12-31T00:26:50.368Z,7.73
2017-12-31T00:27:54.801Z,7.65
2017-12-31T00:28:59.401Z,7.68
2017-12-31T00:30:05.564Z,7.61
2017-12-31T00:32:19.457Z,7.58
2017-12-31T00:33:23.901Z,7.56
2017-12-31T00:34:28.346Z,7.54
2017-12-31T00:35:33.136Z,7.49
2017-12-31T00:36:37.554Z,7.54
2017-12-31T00:37:42.019Z,7.49
2017-12-31T00:38:46.504Z,7.43
2017-12-31T00:39:50.966Z,7.44
2017-12-31T00:40:55.586Z,7.42
2017-12-31T00:41:59.989Z,7.41
2017-12-31T00:43:04.422Z,7.42
2017-12-31T00:44:08.908Z,7.40
2017-12-31T00:45:15.488Z,7.39
2017-12-31T00:46:20.924Z,7.44
2017-12-31T00:47:25.328Z,7.49
2017-12-31T00:48:31.017Z,7.45
2017-12-31T00:49:35.445Z,7.50
2017-12-31T00:50:40.028Z,7.47
2017-12-31T00:51:44.580Z,7.45
2017-12-31T00:54:02.960Z,7.43
2017-12-31T00:55:07.429Z,7.41
2017-12-31T00:56:14.713Z,7.38
2017-12-31T00:57:19.076Z,7.40
2017-12-31T00:58:23.452Z,7.36
2017-12-31T00:59:28.456Z,7.34
2017-12-31T01:00:33.666Z,7.32
2017-12-31T01:01:38.247Z,7.48
2017-12-31T01:02:42.708Z,7.48
2017-12-31T01:03:47.434Z,7.50
2017-12-31T01:04:51.891Z,7.57
2017-12-31T01:05:56.467Z,7.60
2017-12-31T01:07:01.174Z,7.62
2017-12-31T01:08:05.606Z,7.82
2017-12-31T01:09:10.151Z,7.91
2017-12-31T01:10:14.916Z,7.87
2017-12-31T01:11:19.473Z,7.77
2017-12-31T01:12:23.896Z,7.65
2017-12-31T01:13:28.444Z,7.57
2017-12-31T01:14:33.041Z,7.47
2017-12-31T01:15:38.015Z,7.33
2017-12-31T01:16:42.848Z,7.31
2017-12-31T01:17:47.250Z,7.26
2017-12-31T01:18:52.549Z,7.21
2017-12-31T01:19:56.930Z,7.25
2017-12-31T01:21:01.364Z,7.23
2017-12-31T01:22:05.886Z,7.23
2017-12-31T01:23:10.267Z,7.20
2017-12-31T01:24:14.758Z,7.18
2017-12-31T01:25:19.171Z,7.17
2017-12-31T01:26:23.657Z,7.15
2017-12-31T01:27:28.148Z,7.15
2017-12-31T01:28:32.526Z,7.17
2017-12-31T01:29:36.978Z,7.20
2017-12-31T01:30:41.833Z,7.20
2017-12-31T01:31:46.176Z,7.20
2017-12-31T01:32:51.760Z,7.26
2017-12-31T01:33:56.597Z,7.21
2017-12-31T01:35:00.997Z,7.16
2017-12-31T01:36:05.475Z,7.09
2017-12-31T01:37:09.879Z,7.10
2017-12-31T01:38:14.245Z,7.12
2017-12-31T01:39:18.714Z,7.14
2017-12-31T01:40:23.096Z,7.14
2017-12-31T01:41:27.565Z,7.11
2017-12-31T01:42:31.928Z,7.12
2017-12-31T01:43:36.437Z,7.10
2017-12-31T01:44:40.901Z,7.11
2017-12-31T01:45:45.476Z,7.14
2017-12-31T01:46:51.072Z,7.18
2017-12-31T01:47:55.744Z,7.20
2017-12-31T01:49:04.485Z,7.18
2017-12-31T01:50:08.831Z,7.18
2017-12-31T01:51:13.242Z,7.19
2017-12-31T01:52:17.615Z,7.19
2017-12-31T01:53:22.044Z,7.19
2017-12-31T01:54:26.354Z,7.28
2017-12-31T01:55:31.874Z,7.30
2017-12-31T01:56:36.532Z,7.29
2017-12-31T01:57:40.923Z,7.34
2017-12-31T01:58:45.901Z,7.41
2017-12-31T01:59:50.840Z,7.41
2017-12-31T02:00:55.577Z,7.41
2017-12-31T02:01:59.996Z,7.46
2017-12-31T02:03:04.394Z,7.47
2017-12-31T02:04:12.993Z,7.42
2017-12-31T02:05:17.349Z,7.38
2017-12-31T02:06:21.822Z,7.46
2017-12-31T02:07:26.137Z,7.49
2017-12-31T02:08:30.762Z,7.42
2017-12-31T02:09:35.264Z,7.33
2017-12-31T02:10:40.459Z,7.32
2017-12-31T02:11:44.793Z,7.31
2017-12-31T02:12:49.894Z,7.29
2017-12-31T02:13:54.371Z,7.26
2017-12-31T02:14:59.011Z,7.26
2017-12-31T02:16:03.414Z,7.26
2017-12-31T02:17:08.306Z,7.27
2017-12-31T02:18:12.864Z,7.26
2017-12-31T02:19:17.215Z,7.28
2017-12-31T02:20:21.727Z,7.29
2017-12-31T02:21:26.112Z,7.29
2017-12-31T02:22:30.468Z,7.35
2017-12-31T02:23:35.578Z,7.35
2017-12-31T02:24:39.984Z,7.38
2017-12-31T02:25:44.698Z,7.37
2017-12-31T02:26:50.025Z,7.41
2017-12-31T02:27:54.478Z,7.41
2017-12-31T02:28:58.957Z,7.43
2017-12-31T02:30:04.896Z,7.44
2017-12-31T02:31:09.522Z,7.43
2017-12-31T02:32:13.859Z,7.41
2017-12-31T02:33:18.283Z,7.49
2017-12-31T02:34:22.668Z,7.44
2017-12-31T02:35:28.171Z,7.42
2017-12-31T02:36:33.649Z,7.40
2017-12-31T02:37:38.016Z,7.42
2017-12-31T02:38:42.500Z,7.43
2017-12-31T02:39:46.876Z,7.51
2017-12-31T02:40:51.617Z,7.52
2017-12-31T02:41:56.711Z,7.51
2017-12-31T02:43:01.422Z,7.52
2017-12-31T02:44:17.464Z,7.56
2017-12-31T02:45:22.310Z,7.60
2017-12-31T02:46:26.725Z,7.61
2017-12-31T02:47:31.132Z,7.63
2017-12-31T02:48:35.709Z,7.64
2017-12-31T02:49:40.380Z,7.69
2017-12-31T02:50:44.847Z,7.71
2017-12-31T02:51:50.148Z,7.82
2017-12-31T02:52:54.593Z,7.85
2017-12-31T02:53:59.210Z,7.84
2017-12-31T02:55:03.580Z,7.85
2017-12-31T02:56:08.356Z,7.80
2017-12-31T02:57:13.295Z,7.81
2017-12-31T02:58:17.607Z,7.86
2017-12-31T02:59:22.137Z,7.87
2017-12-31T03:00:26.621Z,7.92
2017-12-31T03:01:31.655Z,7.98
2017-12-31T03:02:36.083Z,7.93
2017-12-31T03:03:40.487Z,7.89
2017-12-31T03:04:44.849Z,7.89
2017-12-31T03:05:49.210Z,8.02
2017-12-31T03:06:53.671Z,8.07
2017-12-31T03:07:58.095Z,8.04
2017-12-31T03:09:02.742Z,8.00
2017-12-31T03:10:07.182Z,7.99
2017-12-31T03:11:11.521Z,7.97
2017-12-31T03:12:16.915Z,8.02
2017-12-31T03:13:21.405Z,8.01
2017-12-31T03:14:25.822Z,8.02
2017-12-31T03:15:31.084Z,8.07
2017-12-31T03:16:35.776Z,8.21
2017-12-31T03:17:40.176Z,8.28
2017-12-31T03:18:44.661Z,8.31
2017-12-31T03:19:49.116Z,8.30
2017-12-31T03:20:53.793Z,8.29
2017-12-31T03:21:58.138Z,8.30
2017-12-31T03:23:02.965Z,8.21
2017-12-31T03:24:07.584Z,8.22
2017-12-31T03:25:12.334Z,8.29
2017-12-31T03:26:16.877Z,8.28
2017-12-31T03:27:21.242Z,8.16
2017-12-31T03:28:25.634Z,8.09
2017-12-31T03:29:30.716Z,8.04
2017-12-31T03:30:35.382Z,8.06
2017-12-31T03:31:40.125Z,8.08
2017-12-31T03:32:44.528Z,8.06
2017-12-31T03:33:48.932Z,8.04
2017-12-31T03:34:53.345Z,8.01
2017-12-31T03:35:57.789Z,7.99
2017-12-31T03:37:02.175Z,8.04
2017-12-31T03:38:06.860Z,8.14
2017-12-31T03:39:11.186Z,8.24
2017-12-31T03:40:15.824Z,8.25
2017-12-31T03:41:20.199Z,8.44
2017-12-31T03:42:24.821Z,8.44
2017-12-31T03:43:30.440Z,8.55
2017-12-31T03:44:35.190Z,8.58
2017-12-31T03:45:54.700Z,8.63
2017-12-31T03:46:59.069Z,8.57
2017-12-31T03:48:03.460Z,8.52
2017-12-31T03:49:07.912Z,8.35
2017-12-31T03:50:12.533Z,8.28
2017-12-31T03:51:17.304Z,8.37
2017-12-31T03:52:21.755Z,8.27
2017-12-31T03:53:26.061Z,8.30
2017-12-31T03:54:31.338Z,8.21
2017-12-31T03:55:35.683Z,8.20
2017-12-31T03:56:40.389Z,8.30
2017-12-31T03:57:45.006Z,8.21
2017-12-31T03:58:49.474Z,8.13
2017-12-31T03:59:53.821Z,8.13
2017-12-31T04:00:58.618Z,8.11
2017-12-31T04:02:03.336Z,8.08
2017-12-31T04:03:08.944Z,8.09
2017-12-31T04:04:13.827Z,8.11
2017-12-31T04:05:18.226Z,8.17
2017-12-31T04:06:22.602Z,8.22
2017-12-31T04:07:27.564Z,8.21
2017-12-31T04:08:32.819Z,8.34
2017-12-31T04:09:37.987Z,8.23
2017-12-31T04:10:42.452Z,8.23
2017-12-31T04:11:46.775Z,8.23
2017-12-31T04:12:51.207Z,8.27
2017-12-31T04:13:55.558Z,8.22
2017-12-31T04:15:00.685Z,8.18
2017-12-31T04:16:05.441Z,8.17
2017-12-31T04:17:10.071Z,8.12
2017-12-31T04:18:14.406Z,8.22
2017-12-31T04:19:18.752Z,8.21
2017-12-31T04:20:23.456Z,8.20
2017-12-31T04:21:27.859Z,8.28
2017-12-31T04:22:32.192Z,8.41
2017-12-31T04:23:36.516Z,8.43
2017-12-31T04:24:41.388Z,8.48
2017-12-31T04:25:45.712Z,8.47
2017-12-31T04:26:50.979Z,8.47
2017-12-31T04:27:55.312Z,8.45
2017-12-31T04:29:00.056Z,8.53
2017-12-31T04:30:06.557Z,8.46
2017-12-31T04:31:10.912Z,8.52
2017-12-31T04:32:15.632Z,8.58
2017-12-31T04:33:20.301Z,8.54
2017-12-31T04:34:24.643Z,8.54
2017-12-31T04:35:28.992Z,8.47
2017-12-31T04:36:33.336Z,8.46
2017-12-31T04:37:37.780Z,8.53
2017-12-31T04:38:42.189Z,8.51
2017-12-31T04:39:48.559Z,8.44
2017-12-31T04:40:52.916Z,8.40
2017-12-31T04:41:57.558Z,8.37
2017-12-31T04:43:01.943Z,8.33
2017-12-31T04:44:06.286Z,8.37
2017-12-31T04:45:12.246Z,8.61
2017-12-31T04:46:17.129Z,8.67
2017-12-31T04:47:21.994Z,8.73
2017-12-31T04:48:31.387Z,8.88
2017-12-31T04:49:35.914Z,8.87
2017-12-31T04:50:40.252Z,8.75
2017-12-31T04:51:44.585Z,8.98
2017-12-31T04:52:49.966Z,8.87
2017-12-31T04:53:54.424Z,8.85
2017-12-31T04:54:58.741Z,8.81
2017-12-31T04:56:03.184Z,8.76
2017-12-31T04:57:08.067Z,8.74
2017-12-31T04:58:12.550Z,8.64
2017-12-31T04:59:17.269Z,8.88
2017-12-31T05:00:26.589Z,8.93
2017-12-31T05:01:31.491Z,9.07
2017-12-31T05:02:35.890Z,8.99
2017-12-31T05:03:40.313Z,9.06
2017-12-31T05:04:45.059Z,9.09
2017-12-31T05:05:51.366Z,9.11
2017-12-31T05:06:55.754Z,9.13
2017-12-31T05:08:00.094Z,9.03
2017-12-31T05:09:04.679Z,8.95
2017-12-31T05:10:15.957Z,9.04
2017-12-31T05:11:20.721Z,9.07
2017-12-31T05:12:25.105Z,9.01
2017-12-31T05:13:29.679Z,8.94
2017-12-31T05:14:34.899Z,9.02
2017-12-31T05:15:39.707Z,8.94
2017-12-31T05:16:44.343Z,8.91
2017-12-31T05:17:49.200Z,9.06
2017-12-31T05:18:53.632Z,9.09
2017-12-31T05:19:58.010Z,9.04
2017-12-31T05:21:02.341Z,9.10
2017-12-31T05:22:06.685Z,9.16
2017-12-31T05:23:13.636Z,9.09
2017-12-31T05:24:18.116Z,9.10
2017-12-31T05:25:22.515Z,9.03
2017-12-31T05:26:28.556Z,9.04
2017-12-31T05:27:32.879Z,9.10
2017-12-31T05:28:37.208Z,9.22
2017-12-31T05:29:41.906Z,9.23
2017-12-31T05:30:46.499Z,9.20
2017-12-31T05:31:50.970Z,9.11
2017-12-31T05:32:55.831Z,9.26
2017-12-31T05:34:00.263Z,9.21
2017-12-31T05:35:04.633Z,9.30
2017-12-31T05:36:08.965Z,9.38
2017-12-31T05:37:13.281Z,9.26
2017-12-31T05:38:17.732Z,9.23
2017-12-31T05:39:22.078Z,9.27
2017-12-31T05:40:27.656Z,9.39
2017-12-31T05:41:32.868Z,9.46
2017-12-31T05:42:37.433Z,9.42
2017-12-31T05:43:41.865Z,9.36
2017-12-31T05:44:46.202Z,9.37
2017-12-31T05:45:50.883Z,9.41
2017-12-31T05:46:55.259Z,9.34
2017-12-31T05:47:59.941Z,9.38
2017-12-31T05:49:04.565Z,9.26
2017-12-31T05:50:08.879Z,9.26
2017-12-31T05:51:13.312Z,9.29
2017-12-31T05:52:17.745Z,9.24
2017-12-31T05:53:22.804Z,9.25
2017-12-31T05:54:27.210Z,9.22
2017-12-31T05:55:32.414Z,9.18
2017-12-31T05:56:36.716Z,9.20
2017-12-31T05:57:41.083Z,9.10
2017-12-31T05:58:45.368Z,9.04
2017-12-31T05:59:50.096Z,9.01
2017-12-31T06:00:54.822Z,9.10
2017-12-31T06:01:59.157Z,9.10
2017-12-31T06:03:03.468Z,9.06
2017-12-31T06:04:07.836Z,9.12
2017-12-31T06:05:12.229Z,8.95
2017-12-31T06:06:16.949Z,8.85
2017-12-31T06:07:21.300Z,8.95
2017-12-31T06:08:25.975Z,8.84
2017-12-31T06:09:31.315Z,8.82
2017-12-31T06:10:35.686Z,8.89
2017-12-31T06:11:40.077Z,8.93
2017-12-31T06:12:44.366Z,9.00
2017-12-31T06:13:48.717Z,8.99
2017-12-31T06:14:53.197Z,8.88
2017-12-31T06:15:57.722Z,8.74
2017-12-31T06:17:02.378Z,8.81
2017-12-31T06:18:06.676Z,8.91
2017-12-31T06:19:11.289Z,9.00
2017-12-31T06:20:15.702Z,8.98
2017-12-31T06:21:20.153Z,8.88
2017-12-31T06:22:24.756Z,8.79
2017-12-31T06:23:29.711Z,8.76
2017-12-31T06:24:37.347Z,8.78
2017-12-31T06:25:41.798Z,8.85
2017-12-31T06:26:46.097Z,8.88
2017-12-31T06:27:50.477Z,8.96
2017-12-31T06:28:54.815Z,9.01
2017-12-31T06:29:59.876Z,8.93
2017-12-31T06:31:05.130Z,8.85
2017-12-31T06:32:09.516Z,8.99
2017-12-31T06:33:19.275Z,9.10
2017-12-31T06:34:23.675Z,9.20
2017-12-31T06:35:28.039Z,9.23
2017-12-31T06:36:32.717Z,9.23
2017-12-31T06:37:37.142Z,9.27
2017-12-31T06:38:41.531Z,9.15
2017-12-31T06:39:46.715Z,9.14
2017-12-31T06:40:52.074Z,9.07
2017-12-31T06:41:56.463Z,9.10
2017-12-31T06:43:01.110Z,9.16
2017-12-31T06:44:05.434Z,9.25
2017-12-31T06:45:12.027Z,9.24
2017-12-31T06:46:16.368Z,9.22
2017-12-31T06:47:20.634Z,9.09
2017-12-31T06:48:24.923Z,9.05
2017-12-31T06:49:29.582Z,9.08
2017-12-31T06:50:33.882Z,9.20
2017-12-31T06:51:38.281Z,9.19
2017-12-31T06:52:42.688Z,9.18
2017-12-31T06:53:47.605Z,9.19
2017-12-31T06:54:52.070Z,9.21
2017-12-31T06:55:56.861Z,9.15
2017-12-31T06:57:01.197Z,9.16
2017-12-31T06:58:05.663Z,9.17
2017-12-31T06:59:09.992Z,9.21
2017-12-31T07:00:17.460Z,9.15
2017-12-31T07:01:25.270Z,9.18
2017-12-31T07:02:29.664Z,9.11
2017-12-31T07:03:34.036Z,9.02
2017-12-31T07:04:38.367Z,9.06
2017-12-31T07:05:44.243Z,9.16
2017-12-31T07:06:48.538Z,9.16
2017-12-31T07:07:53.248Z,9.21
2017-12-31T07:08:58.095Z,9.14
2017-12-31T07:10:02.430Z,9.01
2017-12-31T07:11:06.863Z,9.02
2017-12-31T07:12:11.173Z,9.06
2017-12-31T07:13:15.599Z,9.04
2017-12-31T07:14:20.220Z,9.05
2017-12-31T07:15:24.631Z,9.04
2017-12-31T07:16:29.976Z,8.90
2017-12-31T07:17:41.205Z,8.89
2017-12-31T07:18:45.697Z,8.98
2017-12-31T07:19:52.952Z,8.82
2017-12-31T07:20:57.429Z,8.79
2017-12-31T07:22:01.740Z,8.82
2017-12-31T07:23:06.110Z,8.95
2017-12-31T07:24:10.463Z,9.02
2017-12-31T07:25:14.846Z,9.00
2017-12-31T07:26:19.190Z,9.03
2017-12-31T07:27:30.951Z,9.03
2017-12-31T07:28:35.381Z,8.96
2017-12-31T07:29:39.704Z,8.86
2017-12-31T07:30:44.384Z,8.76
2017-12-31T07:31:49.773Z,8.59
2017-12-31T07:32:54.177Z,8.52
2017-12-31T07:33:58.821Z,8.45
2017-12-31T07:35:03.125Z,8.44
2017-12-31T07:36:07.431Z,8.47
2017-12-31T07:37:11.836Z,8.50
2017-12-31T07:38:16.204Z,8.62
2017-12-31T07:39:20.541Z,8.76
2017-12-31T07:40:28.270Z,8.93
2017-12-31T07:41:32.695Z,9.02
2017-12-31T07:42:36.996Z,9.07
2017-12-31T07:43:41.433Z,9.03
2017-12-31T07:44:45.745Z,8.97
2017-12-31T07:45:51.179Z,8.97
2017-12-31T07:46:57.449Z,8.94
2017-12-31T07:48:01.830Z,8.99
2017-12-31T07:49:06.143Z,9.03
2017-12-31T07:50:10.557Z,9.12
2017-12-31T07:51:14.888Z,9.05
2017-12-31T07:52:19.790Z,9.06
2017-12-31T07:53:24.232Z,9.02
2017-12-31T07:54:28.574Z,9.04
2017-12-31T07:55:32.986Z,9.17
2017-12-31T07:56:37.533Z,9.16
2017-12-31T07:57:42.004Z,9.11
2017-12-31T07:58:47.822Z,9.00
2017-12-31T07:59:53.140Z,8.92
2017-12-31T08:00:57.835Z,9.04
2017-12-31T08:02:03.985Z,9.02
2017-12-31T08:03:08.323Z,9.10
2017-12-31T08:04:12.656Z,9.13
2017-12-31T08:05:16.955Z,9.22
2017-12-31T08:06:23.796Z,9.37
2017-12-31T08:07:28.392Z,9.36
2017-12-31T08:08:33.922Z,9.39
2017-12-31T08:09:38.364Z,9.41
2017-12-31T08:10:43.020Z,9.51
2017-12-31T08:11:48.224Z,9.52
2017-12-31T08:12:53.089Z,9.53
2017-12-31T08:13:57.405Z,9.47
2017-12-31T08:15:04.532Z,9.47
2017-12-31T08:16:09.006Z,9.39
2017-12-31T08:17:13.927Z,9.43
2017-12-31T08:18:18.343Z,9.46
2017-12-31T08:19:22.679Z,9.40
2017-12-31T08:20:28.256Z,9.45
2017-12-31T08:21:33.326Z,9.50
2017-12-31T08:22:38.657Z,9.54
2017-12-31T08:23:43.418Z,9.58
2017-12-31T08:24:47.815Z,9.63
2017-12-31T08:25:52.259Z,9.68
2017-12-31T08:26:56.577Z,9.60
2017-12-31T08:28:00.972Z,9.62
2017-12-31T08:29:05.331Z,9.57
2017-12-31T08:30:09.748Z,9.59
2017-12-31T08:31:14.492Z,9.68
2017-12-31T08:32:26.534Z,9.77
2017-12-31T08:33:30.942Z,9.77
2017-12-31T08:34:35.281Z,9.86
2017-12-31T08:35:39.998Z,9.82
2017-12-31T08:36:44.392Z,9.78
2017-12-31T08:37:48.683Z,9.76
2017-12-31T08:38:53.071Z,9.78
2017-12-31T08:39:57.413Z,9.84
2017-12-31T08:41:02.146Z,9.82
2017-12-31T08:42:06.575Z,9.81
2017-12-31T08:43:10.909Z,9.79
2017-12-31T08:44:15.921Z,9.84
2017-12-31T08:45:20.505Z,9.80
2017-12-31T08:46:25.017Z,9.79
2017-12-31T08:47:29.341Z,9.84
2017-12-31T08:48:33.664Z,9.88
2017-12-31T08:49:38.188Z,9.91
2017-12-31T08:50:42.612Z,9.91
2017-12-31T08:51:49.204Z,9.96
2017-12-31T08:52:53.573Z,9.97
2017-12-31T08:53:58.300Z,10.07
2017-12-31T08:55:02.660Z,10.11
2017-12-31T08:56:07.192Z,10.06
2017-12-31T08:57:11.957Z,10.10
2017-12-31T08:58:16.772Z,10.12
2017-12-31T08:59:21.189Z,10.14
2017-12-31T09:00:26.701Z,10.21
2017-12-31T09:01:32.212Z,10.18
2017-12-31T09:02:36.728Z,10.19
2017-12-31T09:03:41.224Z,10.24
2017-12-31T09:04:46.639Z,10.24
2017-12-31T09:05:51.106Z,10.25
2017-12-31T09:06:55.544Z,10.30
2017-12-31T09:07:59.897Z,10.32
2017-12-31T09:09:04.378Z,10.33
2017-12-31T09:10:09.173Z,10.36
2017-12-31T09:11:13.890Z,10.39
2017-12-31T09:12:18.242Z,10.42
2017-12-31T09:13:22.625Z,10.51
2017-12-31T09:14:27.041Z,10.56
2017-12-31T09:15:32.328Z,10.58
2017-12-31T09:16:36.660Z,10.57
2017-12-31T09:17:41.462Z,10.62
2017-12-31T09:18:45.821Z,10.65
2017-12-31T09:19:52.359Z,10.75
2017-12-31T09:20:56.809Z,10.75
2017-12-31T09:22:01.179Z,10.79
2017-12-31T09:23:06.518Z,10.79
2017-12-31T09:24:10.900Z,10.83
2017-12-31T09:25:15.559Z,10.86
2017-12-31T09:26:19.913Z,10.88
2017-12-31T09:27:24.584Z,10.93
2017-12-31T09:28:30.251Z,10.93
2017-12-31T09:29:34.897Z,11.01
2017-12-31T09:30:39.233Z,11.01
2017-12-31T09:31:43.606Z,11.00
2017-12-31T09:32:47.985Z,11.00
2017-12-31T09:33:52.328Z,11.00
2017-12-31T09:34:56.703Z,11.09
2017-12-31T09:36:01.575Z,11.13
2017-12-31T09:37:06.009Z,11.13
2017-12-31T09:38:10.344Z,11.15
2017-12-31T09:39:14.706Z,11.15
2017-12-31T09:40:23.072Z,11.16
2017-12-31T09:41:27.659Z,11.18
2017-12-31T09:42:32.102Z,11.20
2017-12-31T09:43:36.446Z,11.19
2017-12-31T09:44:40.866Z,11.22
2017-12-31T09:45:45.485Z,11.20
2017-12-31T09:46:50.885Z,11.20
2017-12-31T09:47:55.349Z,11.24
2017-12-31T09:49:00.050Z,11.20
2017-12-31T09:50:04.358Z,11.26
2017-12-31T09:51:08.703Z,11.29
2017-12-31T09:52:13.049Z,11.33
2017-12-31T09:53:17.508Z,11.33
2017-12-31T09:54:21.996Z,11.37
2017-12-31T09:55:26.408Z,11.32
2017-12-31T09:56:31.516Z,11.31
2017-12-31T09:57:35.935Z,11.30
2017-12-31T09:58:41.069Z,11.32
2017-12-31T09:59:45.439Z,11.33
2017-12-31T10:00:51.007Z,11.35
2017-12-31T10:01:55.550Z,11.32
2017-12-31T10:02:59.968Z,11.33
2017-12-31T10:04:04.454Z,11.33
2017-12-31T10:05:08.876Z,11.34
2017-12-31T10:06:13.345Z,11.35
2017-12-31T10:07:19.825Z,11.34
2017-12-31T10:08:24.309Z,11.36
2017-12-31T10:09:28.901Z,11.41
2017-12-31T10:10:33.303Z,11.42
2017-12-31T10:11:37.661Z,11.42
2017-12-31T10:12:42.358Z,11.44
2017-12-31T10:13:46.948Z,11.42
2017-12-31T10:14:51.961Z,11.42
2017-12-31T10:15:56.437Z,11.41
2017-12-31T10:17:00.896Z,11.38
2017-12-31T10:18:05.537Z,11.41
2017-12-31T10:19:09.885Z,11.39
2017-12-31T10:20:14.300Z,11.39
2017-12-31T10:21:18.735Z,11.42
2017-12-31T10:22:23.290Z,11.39
2017-12-31T10:23:27.741Z,11.40
2017-12-31T10:24:32.416Z,11.38
2017-12-31T10:25:36.808Z,11.41
2017-12-31T10:26:41.323Z,11.40
2017-12-31T10:27:47.466Z,11.39
2017-12-31T10:28:52.793Z,11.43
2017-12-31T10:29:57.214Z,11.45
2017-12-31T10:31:01.910Z,11.45
2017-12-31T10:32:10.761Z,11.45
2017-12-31T10:33:15.291Z,11.53
2017-12-31T10:34:19.622Z,11.54
2017-12-31T10:35:23.977Z,11.53
2017-12-31T10:36:29.497Z,11.54
2017-12-31T10:37:34.449Z,11.54
2017-12-31T10:38:39.099Z,11.51
2017-12-31T10:39:43.449Z,11.53
2017-12-31T10:40:48.724Z,11.54
2017-12-31T10:41:53.145Z,11.51
2017-12-31T10:42:57.907Z,11.50
2017-12-31T10:44:02.628Z,11.52
2017-12-31T10:45:07.077Z,11.52
2017-12-31T10:46:11.758Z,11.52
2017-12-31T10:47:16.237Z,11.54
2017-12-31T10:48:20.603Z,11.54
2017-12-31T10:49:25.416Z,11.55
2017-12-31T10:50:29.834Z,11.57
2017-12-31T10:51:34.226Z,11.61
2017-12-31T10:52:38.610Z,11.59
2017-12-31T10:53:43.041Z,11.62
2017-12-31T10:54:47.942Z,11.62
2017-12-31T10:55:52.320Z,11.62
2017-12-31T10:56:57.418Z,11.62
2017-12-31T10:58:01.805Z,11.60
2017-12-31T10:59:06.192Z,11.67
2017-12-31T11:00:10.720Z,11.69
2017-12-31T11:01:15.547Z,11.71
2017-12-31T11:02:20.056Z,11.72
2017-12-31T11:03:24.449Z,11.73
2017-12-31T11:04:29.721Z,11.74
2017-12-31T11:05:34.209Z,11.72
2017-12-31T11:06:38.951Z,11.77
2017-12-31T11:07:43.348Z,11.82
2017-12-31T11:08:48.339Z,11.83
2017-12-31T11:09:52.696Z,11.84
2017-12-31T11:10:57.089Z,11.84
2017-12-31T11:12:01.601Z,11.91
2017-12-31T11:13:06.061Z,11.92
2017-12-31T11:14:16.500Z,11.92
2017-12-31T11:15:21.233Z,12.01
2017-12-31T11:16:37.503Z,12.02
2017-12-31T11:17:42.408Z,12.01
2017-12-31T11:18:46.808Z,12.02
2017-12-31T11:19:51.902Z,12.00
2017-12-31T11:20:56.339Z,12.00
2017-12-31T11:22:00.931Z,11.98
2017-12-31T11:23:05.437Z,11.98
2017-12-31T11:24:09.802Z,11.97
2017-12-31T11:25:14.231Z,11.98
2017-12-31T11:26:18.715Z,11.93
2017-12-31T11:27:23.094Z,11.89
2017-12-31T11:28:27.926Z,11.91
2017-12-31T11:30:47.069Z,11.89
2017-12-31T11:31:51.513Z,11.84
2017-12-31T11:32:56.010Z,11.79
2017-12-31T11:34:00.407Z,11.76
2017-12-31T11:35:05.245Z,11.72
2017-12-31T11:36:10.043Z,11.71
2017-12-31T11:37:14.697Z,11.65
2017-12-31T11:38:19.138Z,11.62
2017-12-31T11:39:24.136Z,11.58
2017-12-31T11:40:29.058Z,11.58
2017-12-31T11:41:34.235Z,11.60
2017-12-31T11:42:38.696Z,11.61
2017-12-31T11:43:43.114Z,11.61
2017-12-31T11:44:50.677Z,11.58
2017-12-31T11:45:55.273Z,11.54
2017-12-31T11:46:59.993Z,11.54
2017-12-31T11:48:04.512Z,11.52
2017-12-31T11:49:08.942Z,11.52
2017-12-31T11:50:15.375Z,11.53
2017-12-31T11:51:19.851Z,11.52
2017-12-31T11:52:24.551Z,11.51
2017-12-31T11:53:29.862Z,11.53
2017-12-31T11:54:34.238Z,11.55
2017-12-31T11:55:38.749Z,11.58
2017-12-31T11:56:43.405Z,11.58
2017-12-31T11:58:57.385Z,11.58
2017-12-31T12:00:02.214Z,11.64
2017-12-31T12:01:07.256Z,11.62
2017-12-31T12:02:14.450Z,11.63
2017-12-31T12:03:18.978Z,11.68
2017-12-31T12:04:23.692Z,11.66
2017-12-31T12:05:28.163Z,11.71
2017-12-31T12:06:33.459Z,11.70
2017-12-31T12:07:37.957Z,11.72
2017-12-31T12:08:42.510Z,11.70
2017-12-31T12:09:47.834Z,11.70
2017-12-31T12:10:52.234Z,11.71
2017-12-31T12:11:56.759Z,11.69
2017-12-31T12:13:01.269Z,11.69
2017-12-31T12:14:05.750Z,11.70
2017-12-31T12:15:11.825Z,11.66
2017-12-31T12:16:18.918Z,11.65
2017-12-31T12:17:23.363Z,11.73
2017-12-31T12:18:28.946Z,11.73
2017-12-31T12:19:33.383Z,11.72
2017-12-31T12:20:37.834Z,11.71
2017-12-31T12:21:42.708Z,11.73
2017-12-31T12:22:47.099Z,11.70
2017-12-31T12:23:52.545Z,11.71
2017-12-31T12:24:57.094Z,11.80
2017-12-31T12:26:01.568Z,11.83
2017-12-31T12:27:05.995Z,11.90
2017-12-31T12:28:10.803Z,11.90
2017-12-31T12:29:15.203Z,11.85
2017-12-31T12:30:20.192Z,11.83
2017-12-31T12:31:24.646Z,11.83
2017-12-31T12:32:31.482Z,11.84
2017-12-31T12:33:36.173Z,11.84
2017-12-31T12:34:41.001Z,11.86
2017-12-31T12:35:45.553Z,11.87
2017-12-31T12:36:50.837Z,11.86
2017-12-31T12:37:56.555Z,11.88
2017-12-31T12:39:00.981Z,11.91
2017-12-31T12:40:05.502Z,11.96
2017-12-31T12:41:10.042Z,11.96
2017-12-31T12:42:15.986Z,11.92
2017-12-31T12:43:20.498Z,11.92
2017-12-31T12:44:25.221Z,11.92
2017-12-31T12:45:30.192Z,11.91
2017-12-31T12:46:35.725Z,11.98
2017-12-31T12:47:40.259Z,11.98
2017-12-31T12:48:46.035Z,11.96
2017-12-31T12:49:50.536Z,12.01
2017-12-31T12:50:56.708Z,12.02
2017-12-31T12:52:01.307Z,12.02
2017-12-31T12:53:05.766Z,12.06
2017-12-31T12:54:10.199Z,12.05
2017-12-31T12:55:14.641Z,12.02
2017-12-31T12:56:19.280Z,12.04
2017-12-31T12:57:23.716Z,11.99
2017-12-31T12:58:28.262Z,11.98
2017-12-31T12:59:32.681Z,11.98
2017-12-31T13:00:37.443Z,11.99
2017-12-31T13:01:42.597Z,11.99
2017-12-31T13:02:47.367Z,11.99
2017-12-31T13:03:51.822Z,12.01
2017-12-31T13:04:56.342Z,12.08
2017-12-31T13:06:01.169Z,12.03
2017-12-31T13:07:05.645Z,11.99
2017-12-31T13:08:13.706Z,11.98
2017-12-31T13:09:18.695Z,11.99
2017-12-31T13:10:23.318Z,11.99
2017-12-31T13:11:27.733Z,11.98
2017-12-31T13:12:32.157Z,11.96
2017-12-31T13:13:36.714Z,11.91
2017-12-31T13:14:41.362Z,11.90
2017-12-31T13:15:46.037Z,11.87
2017-12-31T13:16:50.482Z,11.87
2017-12-31T13:17:54.917Z,11.86
2017-12-31T13:18:59.437Z,11.85
2017-12-31T13:20:03.889Z,11.80
2017-12-31T13:21:08.296Z,11.82
2017-12-31T13:22:12.817Z,11.78
2017-12-31T13:23:17.235Z,11.76
2017-12-31T13:24:30.219Z,11.77
2017-12-31T13:25:36.789Z,11.77
2017-12-31T13:26:41.289Z,11.71
2017-12-31T13:27:45.780Z,11.71
2017-12-31T13:28:50.277Z,11.73
2017-12-31T13:29:54.750Z,11.76
2017-12-31T13:31:00.697Z,11.75
2017-12-31T13:32:12.130Z,11.70
2017-12-31T13:33:16.566Z,11.66
2017-12-31T13:34:20.971Z,11.71
2017-12-31T13:35:25.436Z,11.74
2017-12-31T13:36:30.669Z,11.73
2017-12-31T13:37:35.398Z,11.75
2017-12-31T13:38:39.846Z,11.79
2017-12-31T13:39:44.242Z,11.77
2017-12-31T13:40:49.885Z,11.76
2017-12-31T13:41:54.362Z,11.75
2017-12-31T13:42:58.834Z,11.74
2017-12-31T13:44:04.715Z,11.73
2017-12-31T13:45:09.156Z,11.73
2017-12-31T13:46:14.013Z,11.73
2017-12-31T13:47:18.809Z,11.75
2017-12-31T13:48:24.538Z,11.71
2017-12-31T13:49:29.692Z,11.71
2017-12-31T13:50:34.639Z,11.73
2017-12-31T13:51:39.236Z,11.70
2017-12-31T13:52:43.640Z,11.69
2017-12-31T13:53:48.041Z,11.68
2017-12-31T13:54:52.457Z,11.68
2017-12-31T13:55:57.617Z,11.68
2017-12-31T13:57:02.384Z,11.65
2017-12-31T13:58:06.926Z,11.65
2017-12-31T13:59:12.416Z,11.68
2017-12-31T14:00:27.766Z,11.69
2017-12-31T14:01:33.054Z,11.73
2017-12-31T14:02:37.549Z,11.73
2017-12-31T14:03:42.185Z,11.73
2017-12-31T14:04:47.408Z,11.71
2017-12-31T14:05:51.891Z,11.70
2017-12-31T14:06:56.487Z,11.73
2017-12-31T14:08:01.270Z,11.77
2017-12-31T14:09:06.447Z,11.75
2017-12-31T14:10:10.833Z,11.77
2017-12-31T14:11:15.296Z,11.79
2017-12-31T14:12:19.842Z,11.77
2017-12-31T14:13:24.278Z,11.75
2017-12-31T14:14:28.891Z,11.72
2017-12-31T14:15:33.424Z,11.77
2017-12-31T14:16:38.020Z,11.81
2017-12-31T14:17:42.532Z,11.83